Time;durP1;ratioP1;P1;durP2;ratioP2;P2;SDS_P1;SDS_P2;PMS_P1;PMS_P2;Temp;Humidity;BMP_temperature;BMP_pressure;BME280_temperature;BME280_humidity;BME280_pressure;Samples;Min_cycle;Max_cycle;Signal;HPM_P1;HPM_P2
2020/01/26 00:02:55;;;;;;;10.23;8.95;;;;;;;18.68;37.45;100991.69;;;;-53
2020/01/26 00:05:55;;;;;;;10.41;9.12;;;;;;;18.67;37.36;100983.44;;;;-54
2020/01/26 00:08:55;;;;;;;12.48;9.21;;;;;;;18.64;37.42;100984.45;;;;-53
2020/01/26 00:11:55;;;;;;;9.91;8.85;;;;;;;18.63;37.41;100990.07;;;;-53
2020/01/26 00:14:55;;;;;;;10.65;8.61;;;;;;;18.61;37.37;100997.16;;;;-53
2020/01/26 00:17:55;;;;;;;10.08;8.85;;;;;;;18.59;37.37;100995.81;;;;-53
2020/01/26 00:22:33;;;;;;;10.29;9.17;;;;;;;18.58;37.37;100993.02;;;;-54
2020/01/26 00:24:57;;;;;;;10.47;8.99;;;;;;;18.56;37.38;100985.44;;;;-53
2020/01/26 00:27:55;;;;;;;10.19;8.91;;;;;;;18.54;37.41;100984.15;;;;-53
2020/01/26 00:30:55;;;;;;;9.61;8.57;;;;;;;18.53;37.41;100979.30;;;;-54
2020/01/26 00:33:55;;;;;;;10.05;8.73;;;;;;;18.52;37.41;100980.25;;;;-53
2020/01/26 00:36:55;;;;;;;10.03;8.82;;;;;;;18.50;37.43;100977.91;;;;-54
2020/01/26 00:39:55;;;;;;;11.32;9.19;;;;;;;18.49;37.43;100977.84;;;;-53
2020/01/26 00:42:55;;;;;;;10.66;9.07;;;;;;;18.47;37.40;100971.54;;;;-54
2020/01/26 00:45:55;;;;;;;9.80;8.69;;;;;;;18.45;37.44;100973.20;;;;-54
2020/01/26 00:48:55;;;;;;;9.69;8.60;;;;;;;18.44;37.44;100976.05;;;;-54
2020/01/26 00:51:55;;;;;;;10.67;8.88;;;;;;;18.42;37.45;100972.20;;;;-54
2020/01/26 00:54:55;;;;;;;10.73;8.67;;;;;;;18.42;37.41;100967.84;;;;-53
2020/01/26 00:57:55;;;;;;;9.90;8.55;;;;;;;18.40;37.44;100965.06;;;;-52
2020/01/26 01:00:55;;;;;;;9.87;8.40;;;;;;;18.39;37.46;100959.81;;;;-54
2020/01/26 01:03:55;;;;;;;9.97;8.71;;;;;;;18.37;37.51;100962.09;;;;-53
2020/01/26 01:06:55;;;;;;;9.57;8.57;;;;;;;18.36;37.49;100965.55;;;;-53
2020/01/26 01:13:36;;;;;;;10.73;8.73;;;;;;;18.34;37.55;100963.44;;;;-53
2020/01/26 01:15:56;;;;;;;10.01;8.90;;;;;;;18.32;37.50;100962.59;;;;-54
2020/01/26 01:18:55;;;;;;;9.56;8.53;;;;;;;18.31;37.51;100964.38;;;;-54
2020/01/26 01:21:55;;;;;;;9.65;8.65;;;;;;;18.30;37.50;100968.22;;;;-53
2020/01/26 01:24:55;;;;;;;9.89;8.67;;;;;;;18.29;37.58;100970.11;;;;-53
2020/01/26 01:27:55;;;;;;;10.07;8.97;;;;;;;18.27;37.54;100971.77;;;;-54
2020/01/26 01:30:55;;;;;;;10.21;8.68;;;;;;;18.26;37.53;100972.33;;;;-53
2020/01/26 01:33:55;;;;;;;9.93;8.61;;;;;;;18.25;37.52;100970.16;;;;-53
2020/01/26 01:36:55;;;;;;;9.66;8.47;;;;;;;18.24;37.56;100965.41;;;;-54
2020/01/26 01:39:55;;;;;;;9.60;8.59;;;;;;;18.23;37.56;100970.73;;;;-59
2020/01/26 01:42:55;;;;;;;9.97;8.60;;;;;;;18.22;37.57;100975.52;;;;-59
2020/01/26 01:45:55;;;;;;;10.09;8.62;;;;;;;18.20;37.55;100973.62;;;;-59
2020/01/26 01:48:55;;;;;;;9.66;8.63;;;;;;;18.19;37.56;100976.56;;;;-53
2020/01/26 01:51:55;;;;;;;9.79;8.56;;;;;;;18.19;37.53;100977.91;;;;-59
2020/01/26 01:54:55;;;;;;;9.63;8.62;;;;;;;18.17;37.53;100974.28;;;;-59
2020/01/26 01:57:56;;;;;;;10.14;8.46;;;;;;;18.16;37.54;100967.41;;;;-59
2020/01/26 02:00:55;;;;;;;9.53;8.45;;;;;;;18.14;37.57;100964.14;;;;-59
2020/01/26 02:04:55;;;;;;;9.06;8.15;;;;;;;18.14;37.61;100964.12;;;;-50
2020/01/26 02:07:55;;;;;;;9.59;8.59;;;;;;;18.12;37.62;100959.67;;;;-59
2020/01/26 02:10:55;;;;;;;9.42;8.11;;;;;;;18.11;37.59;100953.86;;;;-59
2020/01/26 02:13:55;;;;;;;11.29;8.75;;;;;;;18.10;37.55;100952.80;;;;-51
2020/01/26 02:16:55;;;;;;;9.34;8.33;;;;;;;18.09;37.55;100955.14;;;;-51
2020/01/26 02:19:55;;;;;;;9.38;8.07;;;;;;;18.07;37.57;100951.39;;;;-51
2020/01/26 02:22:55;;;;;;;9.53;8.45;;;;;;;18.07;37.58;100943.16;;;;-50
2020/01/26 02:25:55;;;;;;;9.28;8.29;;;;;;;18.05;37.57;100939.91;;;;-59
2020/01/26 02:28:55;;;;;;;10.43;8.69;;;;;;;18.04;37.57;100937.97;;;;-59
2020/01/26 02:38:00;;;;;;;9.52;8.06;;;;;;;18.02;37.53;100932.95;;;;-59
2020/01/26 02:41:55;;;;;;;9.49;8.34;;;;;;;18.00;37.60;100928.26;;;;-59
2020/01/26 02:44:55;;;;;;;9.58;8.23;;;;;;;18.00;37.63;100931.66;;;;-59
2020/01/26 02:47:55;;;;;;;9.68;8.37;;;;;;;17.98;37.63;100925.69;;;;-59
2020/01/26 02:50:55;;;;;;;8.92;7.99;;;;;;;17.98;37.64;100926.03;;;;-59
2020/01/26 02:53:55;;;;;;;9.11;8.13;;;;;;;17.98;37.56;100924.42;;;;-58
2020/01/26 02:56:55;;;;;;;9.85;8.62;;;;;;;17.96;37.61;100924.58;;;;-59
2020/01/26 02:59:55;;;;;;;8.99;8.03;;;;;;;17.95;37.58;100923.29;;;;-59
2020/01/26 03:02:55;;;;;;;9.74;8.58;;;;;;;17.94;37.57;100921.02;;;;-59
2020/01/26 03:05:55;;;;;;;9.26;8.27;;;;;;;17.93;37.62;100920.83;;;;-59
2020/01/26 03:08:55;;;;;;;9.60;8.60;;;;;;;17.92;37.59;100914.98;;;;-48
2020/01/26 03:11:55;;;;;;;10.41;8.41;;;;;;;17.91;37.57;100916.10;;;;-48
2020/01/26 03:14:55;;;;;;;9.41;8.11;;;;;;;17.90;37.59;100913.19;;;;-48
2020/01/26 03:17:55;;;;;;;9.47;8.28;;;;;;;17.90;37.67;100916.30;;;;-48
2020/01/26 03:20:55;;;;;;;9.08;8.16;;;;;;;17.89;37.60;100918.09;;;;-51
2020/01/26 03:23:55;;;;;;;9.44;8.36;;;;;;;17.88;37.61;100913.91;;;;-50
2020/01/26 03:26:55;;;;;;;8.73;7.77;;;;;;;17.87;37.59;100909.11;;;;-51
2020/01/26 03:29:55;;;;;;;9.23;8.17;;;;;;;17.86;37.61;100909.61;;;;-51
2020/01/26 03:32:58;;;;;;;9.01;8.11;;;;;;;17.85;37.64;100908.06;;;;-50
2020/01/26 03:35:55;;;;;;;9.59;8.47;;;;;;;17.85;37.62;100903.55;;;;-50
2020/01/26 03:38:55;;;;;;;9.09;8.12;;;;;;;17.84;37.70;100904.59;;;;-51
2020/01/26 03:41:55;;;;;;;9.57;8.28;;;;;;;17.82;37.64;100898.81;;;;-48
2020/01/26 03:44:55;;;;;;;8.94;7.99;;;;;;;17.81;37.68;100894.91;;;;-48
2020/01/26 03:47:55;;;;;;;9.05;8.13;;;;;;;17.81;37.68;100889.95;;;;-48
2020/01/26 03:50:55;;;;;;;8.76;7.71;;;;;;;17.79;37.65;100890.45;;;;-49
2020/01/26 03:53:55;;;;;;;9.44;8.06;;;;;;;17.79;37.69;100894.79;;;;-48
2020/01/26 03:59:55;;;;;;;9.12;8.10;;;;;;;17.77;37.66;100896.27;;;;-48
2020/01/26 04:02:55;;;;;;;9.03;8.13;;;;;;;17.77;37.71;100897.23;;;;-59
2020/01/26 04:05:55;;;;;;;8.82;7.88;;;;;;;17.76;37.67;100892.66;;;;-59
2020/01/26 04:08:55;;;;;;;9.39;8.19;;;;;;;17.74;37.65;100897.44;;;;-59
2020/01/26 04:11:55;;;;;;;8.95;8.01;;;;;;;17.74;37.72;100906.29;;;;-59
2020/01/26 04:15:57;;;;;;;9.38;8.31;;;;;;;17.74;37.70;100910.52;;;;-59
2020/01/26 04:21:55;;;;;;;8.90;8.00;;;;;;;17.72;37.70;100914.52;;;;-59
2020/01/26 04:25:55;;;;;;;9.19;8.13;;;;;;;17.71;37.71;100909.91;;;;-59
2020/01/26 04:29:55;;;;;;;8.93;7.99;;;;;;;17.70;37.67;100909.56;;;;-50
2020/01/26 04:35:55;;;;;;;9.12;8.05;;;;;;;17.69;37.69;100911.90;;;;-51
2020/01/26 04:39:55;;;;;;;9.21;8.23;;;;;;;17.68;37.67;100908.44;;;;-50
2020/01/26 04:42:55;;;;;;;8.83;7.93;;;;;;;17.68;37.67;100912.72;;;;-53
2020/01/26 04:45:55;;;;;;;8.80;7.92;;;;;;;17.69;37.71;100910.96;;;;-59
2020/01/26 04:48:55;;;;;;;8.79;7.89;;;;;;;17.70;37.75;100916.24;;;;-59
2020/01/26 04:51:55;;;;;;;8.62;7.48;;;;;;;17.72;37.70;100918.66;;;;-59
2020/01/26 04:54:55;;;;;;;8.39;7.39;;;;;;;17.73;37.70;100918.76;;;;-59
2020/01/26 04:58:04;;;;;;;8.31;7.43;;;;;;;17.75;37.68;100920.16;;;;-59
2020/01/26 05:00:55;;;;;;;7.89;7.09;;;;;;;17.78;37.77;100922.47;;;;-48
2020/01/26 05:03:55;;;;;;;8.13;7.33;;;;;;;17.81;37.71;100926.86;;;;-49
2020/01/26 05:06:55;;;;;;;7.92;7.11;;;;;;;17.84;37.79;100920.23;;;;-48
2020/01/26 05:09:55;;;;;;;8.42;7.54;;;;;;;17.89;37.83;100917.32;;;;-49
2020/01/26 05:12:55;;;;;;;8.09;7.21;;;;;;;17.93;37.78;100922.51;;;;-49
2020/01/26 05:15:55;;;;;;;8.09;7.29;;;;;;;17.97;37.77;100922.36;;;;-59
2020/01/26 05:18:55;;;;;;;7.89;7.08;;;;;;;18.01;37.77;100911.67;;;;-59
2020/01/26 05:21:55;;;;;;;8.02;7.22;;;;;;;18.06;37.75;100915.30;;;;-59
2020/01/26 05:24:55;;;;;;;7.69;6.89;;;;;;;18.10;37.76;100915.20;;;;-53
2020/01/26 05:27:55;;;;;;;7.79;6.99;;;;;;;18.16;37.74;100916.61;;;;-51
2020/01/26 05:30:58;;;;;;;7.78;6.96;;;;;;;18.22;37.75;100916.34;;;;-51
2020/01/26 05:33:55;;;;;;;7.33;6.60;;;;;;;18.25;37.75;100910.70;;;;-48
2020/01/26 05:36:55;;;;;;;7.73;6.90;;;;;;;18.28;37.78;100913.64;;;;-51
2020/01/26 05:39:55;;;;;;;7.25;6.50;;;;;;;18.32;37.77;100913.95;;;;-54
2020/01/26 05:42:56;;;;;;;7.51;6.75;;;;;;;18.36;37.75;100909.54;;;;-54
2020/01/26 05:45:55;;;;;;;7.77;6.77;;;;;;;18.40;37.75;100908.76;;;;-51
2020/01/26 05:48:55;;;;;;;7.50;6.71;;;;;;;18.43;37.76;100907.20;;;;-51
2020/01/26 05:51:55;;;;;;;7.65;6.83;;;;;;;18.46;37.80;100904.19;;;;-51
2020/01/26 05:54:55;;;;;;;7.13;6.43;;;;;;;18.50;37.76;100904.81;;;;-51
2020/01/26 05:57:55;;;;;;;7.49;6.69;;;;;;;18.55;37.71;100906.16;;;;-54
2020/01/26 06:00:55;;;;;;;7.32;6.59;;;;;;;18.59;37.68;100912.06;;;;-49
2020/01/26 06:03:55;;;;;;;7.37;6.67;;;;;;;18.60;37.68;100912.39;;;;-51
2020/01/26 06:06:55;;;;;;;7.47;6.70;;;;;;;18.63;37.69;100905.76;;;;-51
2020/01/26 06:09:55;;;;;;;7.16;6.46;;;;;;;18.66;37.66;100904.02;;;;-51
2020/01/26 06:12:55;;;;;;;7.01;6.31;;;;;;;18.68;37.69;100899.95;;;;-49
2020/01/26 06:15:55;;;;;;;6.89;6.19;;;;;;;18.71;37.69;100904.02;;;;-60
2020/01/26 06:18:55;;;;;;;6.97;6.27;;;;;;;18.72;37.63;100905.36;;;;-49
2020/01/26 06:21:55;;;;;;;7.36;6.58;;;;;;;18.75;37.78;100903.35;;;;-50
2020/01/26 06:24:55;;;;;;;7.75;6.12;;;;;;;18.79;37.84;100904.63;;;;-46
2020/01/26 06:27:55;;;;;;;6.49;5.89;;;;;;;18.82;38.02;100904.86;;;;-47
2020/01/26 06:30:55;;;;;;;6.87;6.16;;;;;;;18.84;38.02;100908.88;;;;-46
2020/01/26 06:33:56;;;;;;;6.86;6.16;;;;;;;18.87;38.08;100906.36;;;;-46
2020/01/26 06:37:03;;;;;;;6.21;5.61;;;;;;;18.88;38.13;100906.46;;;;-46
2020/01/26 06:40:06;;;;;;;6.52;5.92;;;;;;;18.94;37.99;100904.84;;;;-46
2020/01/26 06:42:59;;;;;;;6.45;5.82;;;;;;;18.95;38.05;100902.72;;;;-43
2020/01/26 06:45:56;;;;;;;6.35;5.75;;;;;;;18.99;38.04;100900.98;;;;-44
2020/01/26 06:49:00;;;;;;;6.57;5.90;;;;;;;19.00;38.05;100900.98;;;;-46
2020/01/26 06:51:55;;;;;;;6.37;5.77;;;;;;;19.03;37.99;100905.56;;;;-43
2020/01/26 06:54:55;;;;;;;6.27;5.67;;;;;;;19.07;37.95;100905.83;;;;-43
2020/01/26 06:57:55;;;;;;;6.74;6.07;;;;;;;19.10;37.96;100904.16;;;;-42
2020/01/26 07:00:55;;;;;;;6.56;5.93;;;;;;;19.13;37.96;100907.23;;;;-43
2020/01/26 07:03:55;;;;;;;6.44;5.77;;;;;;;19.17;37.89;100904.05;;;;-51
2020/01/26 07:06:55;;;;;;;6.86;5.80;;;;;;;19.19;37.94;100900.92;;;;-52
2020/01/26 07:09:55;;;;;;;6.10;5.49;;;;;;;19.22;37.85;100905.33;;;;-51
2020/01/26 07:12:55;;;;;;;5.73;5.23;;;;;;;19.24;37.80;100904.94;;;;-42
2020/01/26 07:15:55;;;;;;;6.12;5.52;;;;;;;19.27;37.85;100904.86;;;;-44
2020/01/26 07:18:56;;;;;;;6.27;5.66;;;;;;;19.29;37.79;100902.34;;;;-44
2020/01/26 07:21:55;;;;;;;5.87;5.26;;;;;;;19.30;37.78;100903.07;;;;-48
2020/01/26 07:24:55;;;;;;;6.65;5.19;;;;;;;19.33;37.73;100903.72;;;;-50
2020/01/26 07:28:02;;;;;;;5.68;5.18;;;;;;;19.37;37.72;100907.34;;;;-49
2020/01/26 07:30:59;;;;;;;5.89;5.36;;;;;;;19.38;37.73;100905.94;;;;-49
2020/01/26 07:33:55;;;;;;;5.97;5.29;;;;;;;19.40;37.65;100915.61;;;;-48
2020/01/26 07:36:55;;;;;;;6.62;5.15;;;;;;;19.41;37.69;100918.84;;;;-49
2020/01/26 07:39:55;;;;;;;5.91;5.35;;;;;;;19.43;37.56;100922.73;;;;-48
2020/01/26 07:42:55;;;;;;;5.85;5.17;;;;;;;19.43;37.53;100916.60;;;;-49
2020/01/26 07:45:55;;;;;;;5.55;5.05;;;;;;;19.43;37.41;100914.02;;;;-49
2020/01/26 07:48:55;;;;;;;6.03;5.29;;;;;;;19.43;37.39;100922.06;;;;-49
2020/01/26 07:51:55;;;;;;;5.43;4.93;;;;;;;19.41;37.38;100915.77;;;;-49
2020/01/26 07:54:55;;;;;;;5.27;4.77;;;;;;;19.40;37.35;100914.94;;;;-49
2020/01/26 07:57:55;;;;;;;5.21;4.72;;;;;;;19.39;37.35;100918.61;;;;-49
2020/01/26 08:00:55;;;;;;;5.33;4.83;;;;;;;19.39;37.27;100920.56;;;;-49
2020/01/26 08:03:55;;;;;;;5.95;4.80;;;;;;;19.39;37.25;100922.73;;;;-49
2020/01/26 08:06:55;;;;;;;5.24;4.74;;;;;;;19.38;37.30;100924.09;;;;-49
2020/01/26 08:09:55;;;;;;;5.47;4.97;;;;;;;19.38;37.22;100920.41;;;;-49
2020/01/26 08:12:55;;;;;;;5.66;4.87;;;;;;;19.37;37.28;100919.85;;;;-49
2020/01/26 08:15:55;;;;;;;5.47;4.97;;;;;;;19.38;37.26;100919.36;;;;-49
2020/01/26 08:18:55;;;;;;;5.53;5.01;;;;;;;19.39;37.15;100919.24;;;;-49
2020/01/26 08:21:55;;;;;;;5.27;4.73;;;;;;;19.39;37.13;100914.99;;;;-49
2020/01/26 08:24:55;;;;;;;5.27;4.77;;;;;;;19.37;37.24;100918.01;;;;-49
2020/01/26 08:27:56;;;;;;;5.53;5.03;;;;;;;19.37;37.19;100922.42;;;;-48
2020/01/26 08:37:55;;;;;;;5.37;4.87;;;;;;;19.39;37.19;100934.48;;;;-49
2020/01/26 08:40:55;;;;;;;5.18;4.68;;;;;;;19.39;37.07;100940.78;;;;-49
2020/01/26 08:43:55;;;;;;;5.33;4.83;;;;;;;19.39;37.07;100937.20;;;;-49
2020/01/26 08:46:55;;;;;;;5.04;4.54;;;;;;;19.39;37.14;100939.82;;;;-49
2020/01/26 08:49:55;;;;;;;5.08;4.58;;;;;;;19.40;37.13;100941.17;;;;-49
2020/01/26 08:52:55;;;;;;;5.01;4.51;;;;;;;19.40;37.07;100942.72;;;;-48
2020/01/26 08:55:55;;;;;;;5.11;4.61;;;;;;;19.41;36.97;100943.45;;;;-49
2020/01/26 08:58:55;;;;;;;5.69;4.97;;;;;;;19.42;37.03;100945.67;;;;-49
2020/01/26 09:01:55;;;;;;;5.53;4.97;;;;;;;19.42;37.10;100945.13;;;;-49
2020/01/26 09:04:55;;;;;;;5.24;4.74;;;;;;;19.43;37.06;100947.86;;;;-49
2020/01/26 09:07:55;;;;;;;5.27;4.77;;;;;;;19.43;37.03;100947.47;;;;-49
2020/01/26 09:10:55;;;;;;;5.07;4.57;;;;;;;19.43;37.09;100946.86;;;;-50
2020/01/26 09:13:55;;;;;;;4.73;4.31;;;;;;;19.43;37.13;100938.25;;;;-49
2020/01/26 09:16:55;;;;;;;7.31;5.25;;;;;;;19.43;36.80;100937.08;;;;-49
2020/01/26 09:19:55;;;;;;;10.24;5.55;;;;;;;19.43;36.72;100935.20;;;;-49
2020/01/26 09:22:55;;;;;;;5.25;4.69;;;;;;;19.44;36.76;100939.38;;;;-49
2020/01/26 09:25:55;;;;;;;5.69;4.93;;;;;;;19.46;36.77;100940.20;;;;-49
2020/01/26 09:28:55;;;;;;;7.13;4.64;;;;;;;19.45;36.77;100937.31;;;;-49
2020/01/26 09:31:55;;;;;;;5.29;4.74;;;;;;;19.46;36.78;100938.37;;;;-49
2020/01/26 09:34:55;;;;;;;5.84;4.63;;;;;;;19.45;36.86;100940.03;;;;-48
2020/01/26 09:37:55;;;;;;;7.86;4.79;;;;;;;19.46;36.84;100941.38;;;;-45
2020/01/26 09:40:55;;;;;;;7.17;4.67;;;;;;;19.45;36.88;100945.56;;;;-45
2020/01/26 09:43:55;;;;;;;5.39;4.40;;;;;;;19.45;36.88;100945.69;;;;-45
2020/01/26 09:46:55;;;;;;;5.01;4.52;;;;;;;19.46;36.84;100948.92;;;;-45
2020/01/26 09:49:55;;;;;;;5.30;4.57;;;;;;;19.47;37.07;100948.47;;;;-45
2020/01/26 09:52:56;;;;;;;7.61;4.65;;;;;;;19.47;37.12;100948.58;;;;-48
2020/01/26 09:55:56;;;;;;;5.07;4.30;;;;;;;19.49;37.40;100942.83;;;;-47
2020/01/26 09:58:55;;;;;;;7.63;4.50;;;;;;;19.50;37.54;100938.36;;;;-49
2020/01/26 10:01:55;;;;;;;5.80;4.58;;;;;;;19.53;37.66;100938.23;;;;-45
2020/01/26 10:04:55;;;;;;;5.05;4.48;;;;;;;19.53;37.62;100939.07;;;;-47
2020/01/26 10:07:55;;;;;;;5.02;4.52;;;;;;;19.55;37.71;100938.94;;;;-45
2020/01/26 10:10:55;;;;;;;4.91;4.43;;;;;;;19.55;37.59;100935.92;;;;-46
2020/01/26 10:13:55;;;;;;;6.18;4.61;;;;;;;19.55;37.54;100937.50;;;;-47
2020/01/26 10:17:20;;;;;;;10.61;4.76;;;;;;;19.57;37.62;100938.70;;;;-47
2020/01/26 10:20:02;;;;;;;4.87;4.39;;;;;;;19.55;37.43;100933.98;;;;-49
2020/01/26 10:23:11;;;;;;;4.98;4.49;;;;;;;19.53;37.38;100925.83;;;;-47
2020/01/26 10:31:42;;;;;;;7.40;4.51;;;;;;;19.54;37.90;100929.34;;;;-48
2020/01/26 10:35:06;;;;;;;5.05;4.46;;;;;;;19.55;37.99;100919.68;;;;-49
2020/01/26 10:37:55;;;;;;;5.11;4.59;;;;;;;19.55;37.84;100916.56;;;;-49
2020/01/26 10:40:55;;;;;;;4.91;4.36;;;;;;;19.58;38.12;100916.64;;;;-48
2020/01/26 10:43:55;;;;;;;4.87;4.39;;;;;;;19.59;38.06;100914.25;;;;-48
2020/01/26 10:46:55;;;;;;;5.20;4.69;;;;;;;19.59;37.89;100915.20;;;;-47
2020/01/26 10:49:55;;;;;;;7.14;4.44;;;;;;;19.62;38.41;100906.47;;;;-56
2020/01/26 10:52:55;;;;;;;5.17;4.49;;;;;;;19.64;38.04;100903.72;;;;-48
2020/01/26 10:55:55;;;;;;;5.35;4.57;;;;;;;19.65;37.91;100900.98;;;;-48
2020/01/26 10:58:55;;;;;;;8.71;4.71;;;;;;;19.66;37.60;100897.19;;;;-49
2020/01/26 11:01:55;;;;;;;5.36;4.86;;;;;;;19.68;37.86;100892.32;;;;-48
2020/01/26 11:04:55;;;;;;;5.78;4.77;;;;;;;19.68;37.64;100889.20;;;;-48
2020/01/26 11:07:55;;;;;;;5.86;4.71;;;;;;;19.70;37.72;100885.98;;;;-48
2020/01/26 11:10:55;;;;;;;5.77;4.77;;;;;;;19.72;37.64;100887.05;;;;-48
2020/01/26 11:13:55;;;;;;;6.35;4.84;;;;;;;19.73;37.66;100885.59;;;;-47
2020/01/26 11:16:55;;;;;;;5.02;4.52;;;;;;;19.74;37.58;100893.06;;;;-49
2020/01/26 11:19:55;;;;;;;5.81;4.76;;;;;;;19.76;37.59;100890.55;;;;-49
2020/01/26 11:22:55;;;;;;;4.87;4.36;;;;;;;19.75;37.42;100897.74;;;;-49
2020/01/26 11:25:55;;;;;;;6.48;4.37;;;;;;;19.75;37.56;100892.28;;;;-50
2020/01/26 11:28:55;;;;;;;5.27;4.45;;;;;;;19.77;37.67;100893.45;;;;-49
2020/01/26 11:31:55;;;;;;;5.71;4.41;;;;;;;19.80;37.71;100892.42;;;;-49
2020/01/26 11:38:02;;;;;;;7.67;4.71;;;;;;;19.83;37.79;100888.48;;;;-48
2020/01/26 11:41:06;;;;;;;4.90;4.41;;;;;;;19.85;37.85;100883.63;;;;-49
2020/01/26 11:48:03;;;;;;;5.47;4.47;;;;;;;19.87;37.71;100877.25;;;;-49
2020/01/26 11:50:55;;;;;;;6.43;4.62;;;;;;;19.86;37.67;100874.11;;;;-49
2020/01/26 11:53:55;;;;;;;5.13;4.59;;;;;;;19.85;37.48;100869.16;;;;-49
2020/01/26 11:56:55;;;;;;;5.23;4.31;;;;;;;19.84;37.47;100864.41;;;;-48
2020/01/26 12:03:04;;;;;;;4.72;4.19;;;;;;;19.83;37.39;100854.02;;;;-48
2020/01/26 12:05:56;;;;;;;7.07;4.55;;;;;;;19.82;37.43;100846.04;;;;-50
2020/01/26 12:08:55;;;;;;;6.35;5.01;;;;;;;19.82;37.04;100844.42;;;;-53
2020/01/26 12:11:55;;;;;;;6.67;5.20;;;;;;;19.81;36.37;100842.63;;;;-48
2020/01/26 12:14:55;;;;;;;7.69;5.65;;;;;;;19.82;36.47;100836.20;;;;-51
2020/01/26 12:22:01;;;;;;;6.37;5.77;;;;;;;19.83;36.54;100821.17;;;;-50
2020/01/26 12:25:01;;;;;;;5.87;5.28;;;;;;;19.83;36.91;100813.90;;;;-49
2020/01/26 12:27:55;;;;;;;5.40;4.90;;;;;;;19.82;36.72;100807.48;;;;-50
2020/01/26 12:30:55;;;;;;;6.75;4.95;;;;;;;19.83;36.79;100803.01;;;;-50
2020/01/26 12:33:55;;;;;;;5.26;4.75;;;;;;;19.84;36.90;100809.89;;;;-49
2020/01/26 12:36:55;;;;;;;5.07;4.57;;;;;;;19.84;36.91;100813.58;;;;-50
2020/01/26 12:39:55;;;;;;;5.39;4.89;;;;;;;19.84;36.90;100809.27;;;;-50
2020/01/26 12:42:55;;;;;;;5.11;4.61;;;;;;;19.84;36.91;100808.98;;;;-50
2020/01/26 12:45:55;;;;;;;5.49;4.61;;;;;;;19.84;36.90;100805.30;;;;-49
2020/01/26 12:48:55;;;;;;;4.97;4.49;;;;;;;19.84;36.90;100801.11;;;;-50
2020/01/26 12:51:55;;;;;;;5.39;4.85;;;;;;;19.84;36.89;100802.52;;;;-49
2020/01/26 12:54:55;;;;;;;5.15;4.65;;;;;;;19.83;36.96;100798.55;;;;-50
2020/01/26 12:57:55;;;;;;;4.99;4.49;;;;;;;19.84;36.91;100798.09;;;;-49
2020/01/26 13:00:55;;;;;;;5.19;4.69;;;;;;;19.84;36.88;100794.08;;;;-50
2020/01/26 13:03:55;;;;;;;5.16;4.66;;;;;;;19.84;36.91;100798.60;;;;-50
2020/01/26 13:06:55;;;;;;;5.08;4.59;;;;;;;19.84;36.91;100798.70;;;;-50
2020/01/26 13:09:55;;;;;;;5.33;4.83;;;;;;;19.85;36.87;100799.42;;;;-50
2020/01/26 13:12:55;;;;;;;5.25;4.75;;;;;;;19.84;36.93;100789.82;;;;-50
2020/01/26 13:15:55;;;;;;;5.16;4.66;;;;;;;19.85;36.90;100788.25;;;;-49
2020/01/26 13:18:55;;;;;;;4.99;4.49;;;;;;;19.85;36.96;100784.63;;;;-49
2020/01/26 13:21:55;;;;;;;4.99;4.49;;;;;;;19.86;36.90;100786.63;;;;-50
2020/01/26 13:24:55;;;;;;;5.13;4.63;;;;;;;19.85;36.95;100786.75;;;;-50
2020/01/26 13:27:55;;;;;;;5.28;4.76;;;;;;;19.85;36.90;100783.13;;;;-50
2020/01/26 13:30:55;;;;;;;5.22;4.72;;;;;;;19.86;36.89;100779.70;;;;-50
2020/01/26 13:33:55;;;;;;;5.30;4.80;;;;;;;19.87;36.85;100772.16;;;;-50
2020/01/26 13:36:55;;;;;;;5.33;4.83;;;;;;;19.87;36.87;100767.84;;;;-49
2020/01/26 13:39:55;;;;;;;5.11;4.61;;;;;;;19.87;36.86;100767.23;;;;-50
2020/01/26 13:42:55;;;;;;;5.14;4.64;;;;;;;19.87;36.90;100772.20;;;;-50
2020/01/26 13:45:55;;;;;;;5.01;4.51;;;;;;;19.88;36.89;100765.61;;;;-51
2020/01/26 13:48:55;;;;;;;4.97;4.47;;;;;;;19.88;36.99;100759.23;;;;-51
2020/01/26 13:51:55;;;;;;;5.22;4.71;;;;;;;19.88;36.90;100757.28;;;;-51
2020/01/26 13:54:55;;;;;;;4.97;4.47;;;;;;;19.88;36.90;100755.66;;;;-51
2020/01/26 13:57:55;;;;;;;4.95;4.45;;;;;;;19.90;36.92;100756.31;;;;-51
2020/01/26 14:00:55;;;;;;;4.63;4.23;;;;;;;19.89;36.89;100755.36;;;;-51
2020/01/26 14:03:55;;;;;;;4.96;4.51;;;;;;;19.89;36.95;100748.79;;;;-51
2020/01/26 14:06:55;;;;;;;4.70;4.30;;;;;;;19.88;36.99;100752.47;;;;-51
2020/01/26 14:09:55;;;;;;;5.09;4.23;;;;;;;19.89;36.93;100743.97;;;;-51
2020/01/26 14:12:55;;;;;;;5.13;4.57;;;;;;;19.89;36.94;100742.29;;;;-51
2020/01/26 14:15:55;;;;;;;6.95;6.25;;;;;;;19.87;36.07;100741.76;;;;-51
2020/01/26 14:18:55;;;;;;;6.29;5.66;;;;;;;19.88;36.35;100739.86;;;;-51
2020/01/26 14:21:55;;;;;;;5.46;4.96;;;;;;;19.88;36.64;100737.11;;;;-51
2020/01/26 14:24:55;;;;;;;5.42;4.92;;;;;;;19.89;36.68;100734.38;;;;-51
2020/01/26 14:27:55;;;;;;;5.24;4.74;;;;;;;19.88;36.71;100736.60;;;;-48
2020/01/26 14:30:55;;;;;;;5.28;4.75;;;;;;;19.91;37.19;100728.36;;;;-46
2020/01/26 14:33:55;;;;;;;5.27;4.77;;;;;;;19.92;37.33;100720.43;;;;-47
2020/01/26 14:36:55;;;;;;;5.48;4.98;;;;;;;19.92;37.43;100721.81;;;;-48
2020/01/26 14:39:55;;;;;;;7.49;4.89;;;;;;;19.95;37.49;100726.61;;;;-60
2020/01/26 14:42:55;;;;;;;6.35;4.92;;;;;;;19.96;37.41;100724.18;;;;-50
2020/01/26 14:45:55;;;;;;;5.35;4.75;;;;;;;19.97;37.64;100721.72;;;;-46
2020/01/26 14:48:55;;;;;;;5.30;4.75;;;;;;;19.99;37.61;100720.30;;;;-46
2020/01/26 14:51:55;;;;;;;5.81;4.57;;;;;;;20.01;37.57;100719.55;;;;-46
2020/01/26 14:54:55;;;;;;;5.19;4.69;;;;;;;20.00;37.57;100718.00;;;;-46
2020/01/26 14:57:57;;;;;;;6.60;5.90;;;;;;;19.98;36.46;100720.78;;;;-50
2020/01/26 15:00:55;;;;;;;5.92;5.18;;;;;;;19.99;36.78;100721.86;;;;-51
2020/01/26 15:03:55;;;;;;;5.60;4.95;;;;;;;19.98;36.86;100719.78;;;;-51
2020/01/26 15:06:55;;;;;;;5.89;5.29;;;;;;;19.99;36.90;100729.78;;;;-51
2020/01/26 15:09:55;;;;;;;5.39;4.89;;;;;;;19.98;36.95;100731.08;;;;-51
2020/01/26 15:12:55;;;;;;;5.26;4.76;;;;;;;19.97;36.83;100727.64;;;;-51
2020/01/26 15:15:55;;;;;;;5.41;4.82;;;;;;;19.97;36.93;100723.22;;;;-50
2020/01/26 15:19:01;;;;;;;5.05;4.55;;;;;;;19.97;36.94;100729.55;;;;-51
2020/01/26 15:21:55;;;;;;;5.38;4.88;;;;;;;19.97;36.91;100733.84;;;;-51
2020/01/26 15:24:55;;;;;;;5.37;4.87;;;;;;;19.97;36.98;100735.63;;;;-51
2020/01/26 15:27:55;;;;;;;5.38;4.88;;;;;;;19.96;36.95;100738.94;;;;-51
2020/01/26 15:30:55;;;;;;;5.33;4.83;;;;;;;19.97;36.97;100734.48;;;;-51
2020/01/26 15:33:55;;;;;;;5.41;4.91;;;;;;;19.96;37.04;100733.80;;;;-50
2020/01/26 15:36:55;;;;;;;5.43;4.93;;;;;;;19.96;36.93;100729.50;;;;-51
2020/01/26 15:39:55;;;;;;;5.27;4.76;;;;;;;19.95;36.98;100732.75;;;;-51
2020/01/26 15:42:55;;;;;;;5.27;4.77;;;;;;;19.95;36.96;100737.88;;;;-51
2020/01/26 15:45:55;;;;;;;5.11;4.61;;;;;;;19.96;36.95;100734.30;;;;-51
2020/01/26 15:48:55;;;;;;;5.17;4.67;;;;;;;19.95;36.95;100733.86;;;;-51
2020/01/26 15:51:55;;;;;;;5.03;4.49;;;;;;;19.95;37.07;100728.39;;;;-50
2020/01/26 15:54:55;;;;;;;5.37;4.85;;;;;;;19.96;36.97;100727.55;;;;-51
2020/01/26 15:57:55;;;;;;;4.86;4.46;;;;;;;19.96;36.97;100723.20;;;;-50
2020/01/26 16:00:55;;;;;;;4.91;4.50;;;;;;;19.96;36.92;100718.17;;;;-51
2020/01/26 16:03:55;;;;;;;4.93;4.41;;;;;;;19.95;37.03;100716.66;;;;-51
2020/01/26 16:06:55;;;;;;;5.07;4.65;;;;;;;19.95;36.96;100708.67;;;;-51
2020/01/26 16:09:55;;;;;;;5.18;4.68;;;;;;;19.95;37.00;100708.88;;;;-51
2020/01/26 16:12:55;;;;;;;5.01;4.51;;;;;;;19.95;36.96;100705.92;;;;-51
2020/01/26 16:15:55;;;;;;;5.17;4.67;;;;;;;19.95;37.09;100709.05;;;;-51
2020/01/26 16:18:55;;;;;;;5.19;4.69;;;;;;;19.96;37.04;100712.30;;;;-51
2020/01/26 16:21:55;;;;;;;4.95;4.55;;;;;;;19.95;37.11;100709.55;;;;-54
2020/01/26 16:24:55;;;;;;;5.11;4.70;;;;;;;19.96;37.00;100715.76;;;;-55
2020/01/26 16:27:55;;;;;;;5.06;4.59;;;;;;;19.96;37.05;100720.55;;;;-56
2020/01/26 16:30:55;;;;;;;5.13;4.63;;;;;;;19.97;37.03;100718.76;;;;-54
2020/01/26 16:33:55;;;;;;;5.89;4.89;;;;;;;19.98;36.95;100717.19;;;;-55
2020/01/26 16:36:55;;;;;;;5.23;4.73;;;;;;;19.98;37.11;100720.95;;;;-53
2020/01/26 16:39:55;;;;;;;5.29;4.77;;;;;;;20.02;37.11;100723.52;;;;-54
2020/01/26 16:42:55;;;;;;;6.74;4.93;;;;;;;20.04;37.18;100729.97;;;;-54
2020/01/26 16:45:55;;;;;;;7.65;4.82;;;;;;;20.07;37.40;100730.16;;;;-54
2020/01/26 16:48:55;;;;;;;5.11;4.61;;;;;;;20.09;37.41;100736.52;;;;-53
2020/01/26 16:51:55;;;;;;;5.20;4.70;;;;;;;20.11;37.53;100737.17;;;;-55
2020/01/26 16:54:55;;;;;;;5.82;4.71;;;;;;;20.13;37.52;100740.22;;;;-54
2020/01/26 16:57:55;;;;;;;5.40;4.90;;;;;;;20.13;37.56;100736.77;;;;-56
2020/01/26 17:00:55;;;;;;;5.55;5.05;;;;;;;20.14;37.60;100735.41;;;;-54
2020/01/26 17:03:55;;;;;;;5.52;4.99;;;;;;;20.15;37.65;100736.30;;;;-56
2020/01/26 17:06:55;;;;;;;5.45;4.91;;;;;;;20.17;37.76;100738.29;;;;-58
2020/01/26 17:09:55;;;;;;;5.16;4.56;;;;;;;20.17;37.81;100740.88;;;;-57
2020/01/26 17:12:55;;;;;;;5.30;4.80;;;;;;;20.16;37.69;100742.72;;;;-56
2020/01/26 17:15:55;;;;;;;5.44;4.94;;;;;;;20.16;37.83;100750.77;;;;-53
2020/01/26 17:18:55;;;;;;;5.56;5.05;;;;;;;20.16;37.86;100747.58;;;;-57
2020/01/26 17:21:55;;;;;;;5.25;4.76;;;;;;;20.18;37.80;100745.11;;;;-59
2020/01/26 17:24:55;;;;;;;5.19;4.69;;;;;;;20.17;37.86;100747.12;;;;-50
2020/01/26 17:27:55;;;;;;;8.10;5.36;;;;;;;20.18;37.72;100744.38;;;;-45
2020/01/26 17:30:55;;;;;;;5.86;5.12;;;;;;;20.15;37.51;100739.81;;;;-45
2020/01/26 17:33:55;;;;;;;5.51;5.01;;;;;;;20.13;37.42;100735.03;;;;-45